createdAt,value
2023-02-22T00:02:10.504Z,5.44
2023-02-22T00:04:39.664Z,5.59
2023-02-22T00:07:07.875Z,5.61
2023-02-22T00:09:34.979Z,5.48
2023-02-22T00:12:02.205Z,5.01
2023-02-22T00:14:29.167Z,4.95
2023-02-22T00:16:59.370Z,5.04
2023-02-22T00:19:28.033Z,5.26
2023-02-22T00:21:55.218Z,5.40
2023-02-22T00:24:24.657Z,5.58
2023-02-22T00:26:55.721Z,5.82
2023-02-22T00:29:24.180Z,5.80
2023-02-22T00:31:51.650Z,5.82
2023-02-22T00:34:18.829Z,5.89
2023-02-22T00:36:49.741Z,5.91
2023-02-22T00:39:16.964Z,6.09
2023-02-22T00:41:44.127Z,5.94
2023-02-22T00:44:11.853Z,5.78
2023-02-22T00:46:38.804Z,5.60
2023-02-22T00:49:05.693Z,5.53
2023-02-22T00:51:33.862Z,5.34
2023-02-22T00:54:01.406Z,5.45
2023-02-22T00:56:28.727Z,5.54
2023-02-22T00:58:55.966Z,5.50
2023-02-22T01:01:24.115Z,5.46
2023-02-22T01:03:51.449Z,5.52
2023-02-22T01:06:19.274Z,5.60
2023-02-22T01:08:47.719Z,5.79
2023-02-22T01:11:17.155Z,5.74
2023-02-22T01:13:45.314Z,5.84
2023-02-22T01:16:12.279Z,5.69
2023-02-22T01:18:39.314Z,5.54
2023-02-22T01:21:06.990Z,5.43
2023-02-22T01:23:33.947Z,4.80
2023-02-22T01:26:00.908Z,4.94
2023-02-22T01:28:29.248Z,4.68
2023-02-22T01:30:56.484Z,4.94
2023-02-22T01:33:23.744Z,4.86
2023-02-22T01:35:51.467Z,4.99
2023-02-22T01:38:18.478Z,5.13
2023-02-22T01:40:50.557Z,5.26
2023-02-22T01:43:27.980Z,5.31
2023-02-22T01:46:18.174Z,5.51
2023-02-22T01:48:52.361Z,5.33
2023-02-22T01:51:46.430Z,5.14
2023-02-22T01:54:31.377Z,4.62
2023-02-22T01:57:24.147Z,4.62
2023-02-22T01:59:58.003Z,4.82
2023-02-22T02:02:26.274Z,4.76
2023-02-22T02:04:56.468Z,4.88
2023-02-22T02:07:24.838Z,4.83
2023-02-22T02:09:58.690Z,4.41
2023-02-22T02:12:28.812Z,4.35
2023-02-22T02:15:29.215Z,4.34
2023-02-22T02:18:00.794Z,4.31
2023-02-22T02:20:36.453Z,4.40
2023-02-22T02:24:09.953Z,4.61
2023-02-22T02:27:11.244Z,4.73
2023-02-22T02:30:18.447Z,4.69
2023-02-22T02:33:02.762Z,4.75
2023-02-22T02:36:00.297Z,4.75
2023-02-22T02:39:08.139Z,4.74
2023-02-22T02:41:40.769Z,4.63
2023-02-22T02:44:40.027Z,4.39
2023-02-22T02:47:17.360Z,4.10
2023-02-22T02:50:09.287Z,4.24
2023-02-22T02:52:38.269Z,4.16
2023-02-22T02:55:08.662Z,4.12
2023-02-22T02:57:35.617Z,4.27
2023-02-22T03:00:02.490Z,4.35
2023-02-22T03:02:34.564Z,4.51
2023-02-22T03:05:18.329Z,4.32
2023-02-22T03:07:47.013Z,4.43
2023-02-22T03:11:14.942Z,4.11
2023-02-22T03:14:11.747Z,4.07
2023-02-22T03:16:51.935Z,4.13
2023-02-22T03:19:35.662Z,4.06
2023-02-22T03:22:27.532Z,4.02
2023-02-22T03:25:02.083Z,4.06
2023-02-22T03:27:53.308Z,4.01
2023-02-22T03:30:33.696Z,3.94
2023-02-22T03:33:09.020Z,3.79
2023-02-22T03:35:42.826Z,3.88
2023-02-22T03:38:16.052Z,3.86
2023-02-22T03:40:47.223Z,3.80
2023-02-22T03:43:25.009Z,3.65
2023-02-22T03:45:53.244Z,3.58
2023-02-22T03:49:00.008Z,3.57
2023-02-22T03:51:27.771Z,3.67
2023-02-22T03:53:54.999Z,3.64
2023-02-22T03:56:35.846Z,3.59
2023-02-22T03:59:09.378Z,3.79
2023-02-22T04:01:36.924Z,3.93
2023-02-22T04:04:04.530Z,4.04
2023-02-22T04:06:31.727Z,4.01
2023-02-22T04:08:58.602Z,3.86
2023-02-22T04:11:25.718Z,3.85
2023-02-22T04:13:54.817Z,3.84
2023-02-22T04:16:21.843Z,3.97
2023-02-22T04:18:48.723Z,3.86
2023-02-22T04:21:15.854Z,3.70
2023-02-22T04:23:42.977Z,3.64
2023-02-22T04:26:10.027Z,3.71
2023-02-22T04:28:36.905Z,3.99
2023-02-22T04:31:04.323Z,3.95
2023-02-22T04:33:31.608Z,3.84
2023-02-22T04:35:59.437Z,3.94
2023-02-22T04:38:27.111Z,4.15
2023-02-22T04:40:54.966Z,3.99
2023-02-22T04:43:22.409Z,3.83
2023-02-22T04:45:49.314Z,3.73
2023-02-22T04:48:16.584Z,3.95
2023-02-22T04:50:43.560Z,3.94
2023-02-22T04:53:10.831Z,3.79
2023-02-22T04:55:37.693Z,3.91
2023-02-22T04:58:04.825Z,3.82
2023-02-22T05:00:31.841Z,3.62
2023-02-22T05:02:58.693Z,3.24
2023-02-22T05:05:25.685Z,3.09
2023-02-22T05:07:53.296Z,3.13
2023-02-22T05:10:20.683Z,3.17
2023-02-22T05:12:47.642Z,3.15
2023-02-22T05:15:22.861Z,3.00
2023-02-22T05:17:49.724Z,2.96
2023-02-22T05:20:32.494Z,2.96
2023-02-22T05:23:03.729Z,3.30
2023-02-22T05:25:30.640Z,3.19
2023-02-22T05:28:08.355Z,2.95
2023-02-22T05:30:39.552Z,2.84
2023-02-22T05:33:07.581Z,2.89
2023-02-22T05:35:34.619Z,2.86
2023-02-22T05:38:03.233Z,2.91
2023-02-22T05:40:30.649Z,3.33
2023-02-22T05:42:58.923Z,3.30
2023-02-22T05:45:27.758Z,3.24
2023-02-22T05:47:55.551Z,3.31
2023-02-22T05:50:23.268Z,3.34
2023-02-22T05:52:50.567Z,3.37
2023-02-22T05:55:20.270Z,3.26
2023-02-22T05:57:47.597Z,3.33
2023-02-22T06:00:27.923Z,3.24
2023-02-22T06:03:08.092Z,3.39
2023-02-22T06:05:35.905Z,3.34
2023-02-22T06:08:05.646Z,3.34
2023-02-22T06:10:32.932Z,3.19
2023-02-22T06:13:01.662Z,3.20
2023-02-22T06:15:29.626Z,3.13
2023-02-22T06:17:58.839Z,3.20
2023-02-22T06:20:28.008Z,3.24
2023-02-22T06:22:57.661Z,3.16
2023-02-22T06:25:28.657Z,3.09
2023-02-22T06:27:55.565Z,3.12
2023-02-22T06:30:25.358Z,3.22
2023-02-22T06:32:52.621Z,3.01
2023-02-22T06:35:20.170Z,2.94
2023-02-22T06:37:48.683Z,2.75
2023-02-22T06:40:17.103Z,2.76
2023-02-22T06:42:44.444Z,2.94
2023-02-22T06:45:11.759Z,2.97
2023-02-22T06:47:41.290Z,2.92
2023-02-22T06:50:28.923Z,3.10
2023-02-22T06:52:57.005Z,3.33
2023-02-22T06:55:33.538Z,3.15
2023-02-22T06:58:01.008Z,3.19
2023-02-22T07:00:29.932Z,3.13
2023-02-22T07:02:58.137Z,3.20
2023-02-22T07:05:26.941Z,3.07
2023-02-22T07:07:56.577Z,2.98
2023-02-22T07:10:30.082Z,2.93
2023-02-22T07:12:57.146Z,2.96
2023-02-22T07:15:27.883Z,2.96
2023-02-22T07:17:55.029Z,2.83
2023-02-22T07:20:24.498Z,2.98
2023-02-22T07:22:51.881Z,3.26
2023-02-22T07:25:19.398Z,3.42
2023-02-22T07:27:47.404Z,3.48
2023-02-22T07:30:25.117Z,3.90
2023-02-22T07:32:54.348Z,3.85
2023-02-22T07:35:49.569Z,3.86
2023-02-22T07:38:19.008Z,3.89
2023-02-22T07:40:46.455Z,4.05
2023-02-22T07:43:19.671Z,4.12
2023-02-22T07:45:48.315Z,4.11
2023-02-22T07:48:17.576Z,4.01
2023-02-22T07:50:44.878Z,4.07
2023-02-22T07:53:33.423Z,4.07
2023-02-22T07:56:05.714Z,4.20
2023-02-22T07:58:33.543Z,4.28
2023-02-22T08:01:03.701Z,4.34
2023-02-22T08:03:36.665Z,4.69
2023-02-22T08:06:07.043Z,4.77
2023-02-22T08:08:34.536Z,4.96
2023-02-22T08:11:01.877Z,5.27
2023-02-22T08:13:29.724Z,5.20
2023-02-22T08:15:56.734Z,5.31
2023-02-22T08:18:25.259Z,5.58
2023-02-22T08:20:53.582Z,5.79
2023-02-22T08:23:25.356Z,5.97
2023-02-22T08:25:52.737Z,5.85
2023-02-22T08:28:23.434Z,6.05
2023-02-22T08:30:51.744Z,6.13
2023-02-22T08:33:19.920Z,6.26
2023-02-22T08:35:51.684Z,6.49
2023-02-22T08:38:30.912Z,6.57
2023-02-22T08:40:58.155Z,6.70
2023-02-22T08:43:25.281Z,6.73
2023-02-22T08:45:52.703Z,6.64
2023-02-22T08:48:21.133Z,6.70
2023-02-22T08:50:49.130Z,6.89
2023-02-22T08:53:16.871Z,6.97
2023-02-22T08:55:44.822Z,7.20
2023-02-22T08:58:12.252Z,7.18
2023-02-22T09:00:41.388Z,7.46
2023-02-22T09:03:13.366Z,7.40
2023-02-22T09:05:42.276Z,7.35
2023-02-22T09:08:09.658Z,7.40
2023-02-22T09:10:36.808Z,7.53
2023-02-22T09:13:04.720Z,7.61
2023-02-22T09:15:34.116Z,7.94
2023-02-22T09:18:01.255Z,8.23
2023-02-22T09:20:29.421Z,8.38
2023-02-22T09:22:56.954Z,8.64
2023-02-22T09:25:24.348Z,8.68
2023-02-22T09:27:53.296Z,8.76
2023-02-22T09:30:33.534Z,8.97
2023-02-22T09:33:09.990Z,9.20
2023-02-22T09:35:46.445Z,9.34
2023-02-22T09:38:22.712Z,9.46
2023-02-22T09:41:12.263Z,9.52
2023-02-22T09:43:47.764Z,9.68
2023-02-22T09:46:35.159Z,9.76
2023-02-22T09:49:40.682Z,10.04
2023-02-22T09:52:31.527Z,10.32
2023-02-22T09:55:25.691Z,10.45
2023-02-22T09:57:55.501Z,10.65
2023-02-22T10:00:37.967Z,10.72
2023-02-22T10:03:32.845Z,10.94
2023-02-22T10:06:11.192Z,10.96
2023-02-22T10:08:39.584Z,10.78
2023-02-22T10:11:31.193Z,11.15
2023-02-22T10:14:07.406Z,11.21
2023-02-22T10:17:20.681Z,11.39
2023-02-22T10:20:13.448Z,11.57
2023-02-22T10:23:02.300Z,11.51
2023-02-22T10:25:35.334Z,11.74
2023-02-22T10:28:07.805Z,11.76
2023-02-22T10:30:42.617Z,11.89
2023-02-22T10:33:19.189Z,11.60
2023-02-22T10:35:47.276Z,11.43
2023-02-22T10:38:29.656Z,11.61
2023-02-22T10:41:09.360Z,11.70
2023-02-22T10:43:41.776Z,12.01
2023-02-22T10:46:15.589Z,12.35
2023-02-22T10:48:45.938Z,12.52
2023-02-22T10:51:13.974Z,12.55
2023-02-22T10:53:40.980Z,12.45
2023-02-22T10:56:23.212Z,12.76
2023-02-22T10:59:02.319Z,13.05
2023-02-22T11:01:32.406Z,13.22
2023-02-22T11:04:17.127Z,13.29
2023-02-22T11:06:48.716Z,13.02
2023-02-22T11:09:18.721Z,13.11
2023-02-22T11:11:48.692Z,13.38
2023-02-22T11:14:31.147Z,13.42
2023-02-22T11:16:59.642Z,13.81
2023-02-22T11:19:32.877Z,13.70
2023-02-22T11:22:12.186Z,13.81
2023-02-22T11:24:59.322Z,14.04
2023-02-22T11:27:41.117Z,14.21
2023-02-22T11:30:31.567Z,13.91
2023-02-22T11:33:00.334Z,13.75
2023-02-22T11:35:37.009Z,14.10
2023-02-22T11:38:37.089Z,14.29
2023-02-22T11:41:29.398Z,14.44
2023-02-22T11:44:21.839Z,14.47
2023-02-22T11:46:48.921Z,14.54
2023-02-22T11:49:17.361Z,14.46
2023-02-22T11:52:01.137Z,14.34
2023-02-22T11:54:36.788Z,14.42
2023-02-22T11:57:41.422Z,14.74
2023-02-22T12:00:41.067Z,14.67
2023-02-22T12:04:17.023Z,14.82
2023-02-22T12:07:25.310Z,14.50
2023-02-22T12:10:08.437Z,14.57
2023-02-22T12:12:53.309Z,14.52
2023-02-22T12:15:20.592Z,14.62
2023-02-22T12:18:26.766Z,14.59
2023-02-22T12:21:00.148Z,14.91
2023-02-22T12:24:02.652Z,15.03
2023-02-22T12:27:01.576Z,14.97
2023-02-22T12:29:44.074Z,15.08
2023-02-22T12:32:23.802Z,14.87
2023-02-22T12:34:56.448Z,15.25
2023-02-22T12:37:35.445Z,15.35
2023-02-22T12:40:08.537Z,15.48
2023-02-22T12:42:55.537Z,15.02
2023-02-22T12:45:39.978Z,15.00
2023-02-22T12:48:31.389Z,14.68
2023-02-22T12:51:16.548Z,14.71
2023-02-22T12:54:02.233Z,14.82
2023-02-22T12:56:57.588Z,14.79
2023-02-22T12:59:44.416Z,14.61
2023-02-22T13:02:21.441Z,14.75
2023-02-22T13:04:49.996Z,14.67
2023-02-22T13:07:38.849Z,14.94
2023-02-22T13:10:39.357Z,14.89
2023-02-22T13:13:24.879Z,14.98
2023-02-22T13:16:30.854Z,15.03
2023-02-22T13:19:25.213Z,15.21
2023-02-22T13:22:39.376Z,15.07
2023-02-22T13:25:27.536Z,15.13
2023-02-22T13:28:21.767Z,15.08
2023-02-22T13:31:12.960Z,15.34
2023-02-22T13:34:28.351Z,15.23
2023-02-22T13:37:08.871Z,15.04
2023-02-22T13:39:48.261Z,15.20
2023-02-22T13:42:52.545Z,15.50
2023-02-22T13:46:12.529Z,15.18
2023-02-22T13:49:20.136Z,15.01
2023-02-22T13:51:48.782Z,15.12
2023-02-22T13:54:21.693Z,15.21
2023-02-22T13:56:51.080Z,15.40
2023-02-22T13:59:30.927Z,15.37
2023-02-22T14:02:00.385Z,15.27
2023-02-22T14:04:27.265Z,15.34
2023-02-22T14:06:55.046Z,15.30
2023-02-22T14:10:01.746Z,15.13
2023-02-22T14:12:33.513Z,15.27
2023-02-22T14:15:28.325Z,15.36
2023-02-22T14:18:05.235Z,15.25
2023-02-22T14:20:38.211Z,15.12
2023-02-22T14:23:40.408Z,15.15
2023-02-22T14:26:37.468Z,15.07
2023-02-22T14:29:10.032Z,15.06
2023-02-22T14:31:51.931Z,14.97
2023-02-22T14:34:50.884Z,15.12
2023-02-22T14:37:21.391Z,15.00
2023-02-22T14:40:02.169Z,15.04
2023-02-22T14:42:34.621Z,15.22
2023-02-22T14:45:26.119Z,14.97
2023-02-22T14:48:11.645Z,15.04
2023-02-22T14:50:53.572Z,15.00
2023-02-22T14:53:53.099Z,15.06
2023-02-22T14:56:49.166Z,15.08
2023-02-22T14:59:27.465Z,15.05
2023-02-22T15:02:12.890Z,14.91
2023-02-22T15:04:43.957Z,14.85
2023-02-22T15:07:40.632Z,14.92
2023-02-22T15:10:17.641Z,14.91
2023-02-22T15:13:15.707Z,14.93
2023-02-22T15:15:54.931Z,14.87
2023-02-22T15:18:33.486Z,14.93
2023-02-22T15:21:16.273Z,14.75
2023-02-22T15:24:00.684Z,14.51
2023-02-22T15:26:51.859Z,14.29
2023-02-22T15:29:39.241Z,14.39
2023-02-22T15:32:34.166Z,14.41
2023-02-22T15:35:26.913Z,14.27
2023-02-22T15:38:12.163Z,14.32
2023-02-22T15:40:43.236Z,14.43
2023-02-22T15:43:32.293Z,14.24
2023-02-22T15:46:01.004Z,14.32
2023-02-22T15:48:31.679Z,14.40
2023-02-22T15:51:09.341Z,14.36
2023-02-22T15:53:46.413Z,14.33
2023-02-22T15:56:18.729Z,14.37
2023-02-22T15:58:47.914Z,14.50
2023-02-22T16:01:19.149Z,14.27
2023-02-22T16:03:50.537Z,14.39
2023-02-22T16:06:36.318Z,14.14
2023-02-22T16:09:17.288Z,14.25
2023-02-22T16:11:46.577Z,14.26
2023-02-22T16:14:35.958Z,14.19
2023-02-22T16:17:35.647Z,14.22
2023-02-22T16:20:22.562Z,14.09
2023-02-22T16:22:50.496Z,14.21
2023-02-22T16:25:22.385Z,13.96
2023-02-22T16:27:57.458Z,13.69
2023-02-22T16:30:37.472Z,13.82
2023-02-22T16:33:13.450Z,13.74
2023-02-22T16:35:40.998Z,13.65
2023-02-22T16:38:16.928Z,13.69
2023-02-22T16:40:52.414Z,13.48
2023-02-22T16:43:23.071Z,13.37
2023-02-22T16:45:50.278Z,13.44
2023-02-22T16:48:24.148Z,13.36
2023-02-22T16:50:54.609Z,13.20
2023-02-22T16:53:25.626Z,13.14
2023-02-22T16:55:59.267Z,13.15
2023-02-22T16:58:30.258Z,13.16
2023-02-22T17:00:57.817Z,13.01
2023-02-22T17:03:26.446Z,12.91
2023-02-22T17:05:53.751Z,12.91
2023-02-22T17:08:20.853Z,12.90
2023-02-22T17:10:51.483Z,12.81
2023-02-22T17:13:27.329Z,12.67
2023-02-22T17:15:55.179Z,12.75
2023-02-22T17:18:25.009Z,12.74
2023-02-22T17:20:53.104Z,12.63
2023-02-22T17:23:21.707Z,12.70
2023-02-22T17:25:53.925Z,12.63
2023-02-22T17:28:23.655Z,12.65
2023-02-22T17:30:52.411Z,12.57
2023-02-22T17:33:27.765Z,12.48
2023-02-22T17:35:57.820Z,12.51
2023-02-22T17:38:28.831Z,12.43
2023-02-22T17:40:57.725Z,12.26
2023-02-22T17:43:25.690Z,12.32
2023-02-22T17:45:53.812Z,12.32
2023-02-22T17:48:23.888Z,12.27
2023-02-22T17:50:52.185Z,12.07
2023-02-22T17:53:22.724Z,12.29
2023-02-22T17:55:50.703Z,12.37
2023-02-22T17:58:18.095Z,12.20
2023-02-22T18:00:49.258Z,12.36
2023-02-22T18:03:25.490Z,12.26
2023-02-22T18:05:59.658Z,12.20
2023-02-22T18:08:32.077Z,12.12
2023-02-22T18:11:05.098Z,12.21
2023-02-22T18:13:32.047Z,12.12
2023-02-22T18:16:04.893Z,12.19
2023-02-22T18:18:32.415Z,12.25
2023-02-22T18:21:00.039Z,12.17
2023-02-22T18:23:30.505Z,12.17
2023-02-22T18:26:10.541Z,12.04
2023-02-22T18:28:38.811Z,12.04
2023-02-22T18:31:14.481Z,12.26
2023-02-22T18:33:49.067Z,12.17
2023-02-22T18:36:22.540Z,12.19
2023-02-22T18:38:51.939Z,12.29
2023-02-22T18:41:25.123Z,12.03
2023-02-22T18:43:54.491Z,12.08
2023-02-22T18:46:23.263Z,12.20
2023-02-22T18:48:55.518Z,12.19
2023-02-22T18:51:23.850Z,12.33
2023-02-22T18:53:54.936Z,12.25
2023-02-22T18:56:22.414Z,12.29
2023-02-22T18:58:54.340Z,12.14
2023-02-22T19:01:22.105Z,12.43
2023-02-22T19:03:49.425Z,12.42
2023-02-22T19:06:17.746Z,12.21
2023-02-22T19:08:46.132Z,12.29
2023-02-22T19:11:21.833Z,12.20
2023-02-22T19:13:53.870Z,12.34
2023-02-22T19:16:23.353Z,12.39
2023-02-22T19:18:52.749Z,12.40
2023-02-22T19:21:20.757Z,12.49
2023-02-22T19:23:48.860Z,12.47
2023-02-22T19:26:20.836Z,12.33
2023-02-22T19:28:48.774Z,12.24
2023-02-22T19:31:31.297Z,12.18
2023-02-22T19:34:09.039Z,12.19
2023-02-22T19:36:39.761Z,12.19
2023-02-22T19:39:07.240Z,12.28
2023-02-22T19:41:34.223Z,12.24
2023-02-22T19:44:02.472Z,12.55
2023-02-22T19:46:29.583Z,12.40
2023-02-22T19:48:57.223Z,12.44
2023-02-22T19:51:27.945Z,12.62
2023-02-22T19:54:02.467Z,12.58
2023-02-22T19:56:30.798Z,12.61
2023-02-22T19:59:09.182Z,12.52
2023-02-22T20:01:37.230Z,12.44
2023-02-22T20:04:08.453Z,12.46
2023-02-22T20:06:42.702Z,12.45
2023-02-22T20:09:17.824Z,12.45
2023-02-22T20:11:48.573Z,12.38
2023-02-22T20:14:26.101Z,12.43
2023-02-22T20:16:55.583Z,12.46
2023-02-22T20:19:23.557Z,12.24
2023-02-22T20:21:52.352Z,12.31
2023-02-22T20:24:19.558Z,12.30
2023-02-22T20:26:47.994Z,12.26
2023-02-22T20:29:15.967Z,12.23
2023-02-22T20:31:44.531Z,12.25
2023-02-22T20:34:11.937Z,12.38
2023-02-22T20:36:41.828Z,12.40
2023-02-22T20:39:15.885Z,12.41
2023-02-22T20:41:46.129Z,12.37
2023-02-22T20:44:17.107Z,12.30
2023-02-22T20:46:45.091Z,12.18
2023-02-22T20:49:18.795Z,12.53
2023-02-22T20:51:47.926Z,12.55
2023-02-22T20:54:16.252Z,12.36
2023-02-22T20:56:45.463Z,12.42
2023-02-22T20:59:16.225Z,12.21
2023-02-22T21:01:43.572Z,12.23
2023-02-22T21:04:11.382Z,12.40
2023-02-22T21:06:40.373Z,12.09
2023-02-22T21:09:13.741Z,11.97
2023-02-22T21:11:40.801Z,11.95
2023-02-22T21:14:08.827Z,12.03
2023-02-22T21:16:37.281Z,12.02
2023-02-22T21:19:08.166Z,12.04
2023-02-22T21:21:36.098Z,12.09
2023-02-22T21:24:03.089Z,12.06
2023-02-22T21:26:33.544Z,12.14
2023-02-22T21:29:05.382Z,12.06
2023-02-22T21:31:33.975Z,11.98
2023-02-22T21:34:01.833Z,11.97
2023-02-22T21:36:29.685Z,12.02
2023-02-22T21:39:08.322Z,11.92
2023-02-22T21:41:38.742Z,11.91
2023-02-22T21:44:07.718Z,11.78
2023-02-22T21:46:34.813Z,11.84
2023-02-22T21:49:01.766Z,11.74
2023-02-22T21:51:31.738Z,11.78
2023-02-22T21:54:06.134Z,11.72
2023-02-22T21:56:37.825Z,11.75
2023-02-22T21:59:13.595Z,11.69
2023-02-22T22:01:55.793Z,11.66
2023-02-22T22:04:30.652Z,11.64
2023-02-22T22:07:00.405Z,11.74
2023-02-22T22:09:32.802Z,11.77
2023-02-22T22:12:04.955Z,11.75
2023-02-22T22:14:33.390Z,11.82
2023-02-22T22:17:00.982Z,11.80
2023-02-22T22:19:30.149Z,11.76
2023-02-22T22:22:01.088Z,11.73
2023-02-22T22:24:31.934Z,11.66
2023-02-22T22:27:03.594Z,11.83
2023-02-22T22:29:34.221Z,11.74
2023-02-22T22:32:02.017Z,11.70
2023-02-22T22:34:34.369Z,11.67
2023-02-22T22:37:01.345Z,11.70
2023-02-22T22:39:28.524Z,11.67
2023-02-22T22:41:55.562Z,11.59
2023-02-22T22:44:22.978Z,11.64
2023-02-22T22:46:54.709Z,11.56
2023-02-22T22:49:23.702Z,11.63
2023-02-22T22:51:51.136Z,11.52
2023-02-22T22:54:18.282Z,11.48
2023-02-22T22:56:45.449Z,11.40
2023-02-22T22:59:13.436Z,11.38
2023-02-22T23:01:44.538Z,11.36
2023-02-22T23:04:16.947Z,11.29
2023-02-22T23:06:50.665Z,11.35
2023-02-22T23:09:34.650Z,11.26
2023-02-22T23:12:15.036Z,11.53
2023-02-22T23:14:44.439Z,11.37
2023-02-22T23:17:31.291Z,11.28
2023-02-22T23:19:58.576Z,11.26
2023-02-22T23:22:25.534Z,11.29
2023-02-22T23:24:52.558Z,11.36
2023-02-22T23:27:19.561Z,11.22
2023-02-22T23:29:46.692Z,11.18
2023-02-22T23:32:14.217Z,11.20
2023-02-22T23:34:41.664Z,11.19
2023-02-22T23:37:10.521Z,11.14
2023-02-22T23:39:38.314Z,11.14
2023-02-22T23:42:08.682Z,11.19
2023-02-22T23:44:35.560Z,11.18
2023-02-22T23:47:03.825Z,11.15
2023-02-22T23:49:37.912Z,11.16
2023-02-22T23:52:07.771Z,11.11
2023-02-22T23:54:36.743Z,11.08
2023-02-22T23:57:05.299Z,11.03
2023-02-22T23:59:33.769Z,11.09
